Aérodrome :
LOGIN :

S'inscrire | Disclaimer

   EN    FR    IT 

 










Légende :    VFR   VFR Marginal   IFR   IFR Intensif   IFR Très Intensif
Visi : 
Plafond : 
>= 8 km
>= 3000ft
5 à 8 km
1000 à 3000 ft
1500m à 5 km
500 à 1000 ft
800 à 1500m
200 à 500 ft
< 800m
< 200 ft
Symboles :   Orages  Brouillard  Fortes neiges  Fortes précipitations  Vent > 20 kt
SIGMETs :   Divers  Orages  Givrage  Turbulence  Onde Orograph.  Cendres Volcan.






- Altitude de l'aérodrome : 19 ft
- Code IATA : DJE


DTTJ - Djerba Zarzis

DERNIER METAR :
  • 040900Z 36018KT 9999 FEW020 16/08 Q1017 NOSIG

METARs EXPIRÉS :
  • 040830Z 36016KT 9999 FEW020 16/09 Q1017 NOSIG
  • 040800Z 36018KT 9999 FEW020 16/09 Q1016 NOSIG
  • 040730Z 35018KT 9999 FEW020 15/09 Q1016 NOSIG
  • 040700Z 35021KT 8000 FEW020 15/08 Q1015 NOSIG
  • 040630Z 35018KT 8000 FEW020 14/08 Q1015 NOSIG

TAF TAF DTTJ
Valide du 04 à 06h jusqu'au 05 à 06h UTC


040500Z 0406/0506 31011KT 9999 FEW040
BECMG 0406/0408 36012G25KT
BECMG 0409/0411 32008KT 9999 SCT026
BECMG 0414/0416 10006KT



MET'MAP, la Météo Aéronautique d'un coup d'oeil ! - Copyright ORBIFLY Décembre 2007 - Disclaimer

ORBIFLY MET'MAP TEAM :

Programmation & Développement : Alexandra Zaïnal
Sur une idée originale de : Baudouin d'Aumeries
Assistance à la programmation : Marc-Olivier Méhu
Soutien technique & logistique : Manuel Goepfert

Contact : metmap@orbifly.com




SOURCES & CREDITS :

   NOAA